Time;durP1;ratioP1;P1;durP2;ratioP2;P2;SDS_P1;SDS_P2;PMS_P1;PMS_P2;Temp;Humidity;BMP_temperature;BMP_pressure;BME280_temperature;BME280_humidity;BME280_pressure;Samples;Min_cycle;Max_cycle;Signal;HPM_P1;HPM_P2
2021/03/14 00:00:29;;;;;;;5.87;2.57;;;5.90;99.90;;;;;;5125152;28;20195;-67
2021/03/14 00:02:56;;;;;;;9.13;2.50;;;5.90;99.90;;;;;;5127545;28;20159;-67
2021/03/14 00:05:21;;;;;;;5.93;2.63;;;5.90;99.90;;;;;;5125854;28;20700;-67
2021/03/14 00:07:47;;;;;;;7.30;2.40;;;5.90;99.90;;;;;;5127121;28;20182;-67
2021/03/14 00:10:13;;;;;;;7.43;2.37;;;6.00;99.90;;;;;;5124456;28;20235;-67
2021/03/14 00:12:39;;;;;;;5.33;2.50;;;6.00;99.90;;;;;;5126960;28;20178;-67
2021/03/14 00:15:07;;;;;;;4.40;2.50;;;6.00;99.90;;;;;;5125832;28;20620;-67
2021/03/14 00:17:32;;;;;;;7.17;2.10;;;6.00;99.90;;;;;;5126849;28;20174;-67
2021/03/14 00:19:58;;;;;;;8.47;2.37;;;6.00;99.90;;;;;;5124150;28;20322;-67
2021/03/14 00:22:24;;;;;;;8.33;2.40;;;5.90;99.90;;;;;;5125128;28;20151;-67
2021/03/14 00:24:49;;;;;;;7.20;2.40;;;5.90;99.90;;;;;;5125835;28;20581;-67
2021/03/14 00:27:15;;;;;;;8.77;2.50;;;5.90;99.90;;;;;;5126409;28;20627;-67
2021/03/14 00:29:40;;;;;;;14.17;3.37;;;5.90;99.90;;;;;;5124993;28;20225;-67
2021/03/14 00:32:06;;;;;;;9.93;2.63;;;5.90;99.90;;;;;;5126058;28;20166;-67
2021/03/14 00:34:32;;;;;;;8.30;2.83;;;5.80;99.90;;;;;;5126619;28;20174;-67
2021/03/14 00:36:58;;;;;;;6.63;2.17;;;5.80;99.90;;;;;;5126854;28;20158;-67
2021/03/14 00:39:23;;;;;;;8.47;2.47;;;5.80;99.90;;;;;;5126238;28;20229;-67
2021/03/14 00:41:49;;;;;;;6.97;2.67;;;5.80;99.90;;;;;;5123924;28;20154;-67
2021/03/14 00:44:15;;;;;;;10.57;2.43;;;5.90;99.90;;;;;;5126521;28;20173;-67
2021/03/14 00:46:41;;;;;;;11.40;3.10;;;5.80;99.90;;;;;;5125409;28;20169;-67
2021/03/14 00:49:06;;;;;;;11.00;2.83;;;5.80;99.90;;;;;;5126608;28;20651;-67
2021/03/14 00:51:32;;;;;;;8.27;2.33;;;5.70;99.90;;;;;;5123821;28;20212;-67
2021/03/14 00:53:58;;;;;;;8.23;2.87;;;5.60;99.90;;;;;;5126251;28;20212;-67
2021/03/14 00:56:24;;;;;;;8.80;2.70;;;5.70;99.90;;;;;;5126342;28;20163;-67
2021/03/14 00:58:50;;;;;;;12.27;3.10;;;5.60;99.90;;;;;;5126336;28;20283;-67
2021/03/14 01:01:16;;;;;;;13.90;5.07;;;5.60;99.90;;;;;;5123762;28;20154;-67
2021/03/14 01:03:42;;;;;;;15.80;4.90;;;5.60;99.90;;;;;;5126132;28;20154;-67
2021/03/14 01:06:07;;;;;;;11.13;4.37;;;5.60;99.90;;;;;;5126276;28;20155;-66
2021/03/14 01:08:33;;;;;;;7.47;3.00;;;5.70;99.90;;;;;;5126192;28;20222;-66
2021/03/14 01:10:59;;;;;;;13.17;3.00;;;5.70;99.90;;;;;;5123694;28;20166;-66
2021/03/14 01:13:25;;;;;;;7.33;2.63;;;5.60;99.90;;;;;;5159663;27;20162;-67
2021/03/14 01:15:51;;;;;;;10.17;3.17;;;5.60;99.90;;;;;;5159362;27;20540;-66
2021/03/14 01:18:17;;;;;;;9.83;3.07;;;5.70;99.90;;;;;;5126235;28;20162;-66
2021/03/14 01:20:42;;;;;;;6.73;3.33;;;5.80;99.90;;;;;;5122019;28;20267;-67
2021/03/14 01:23:08;;;;;;;12.70;2.60;;;5.60;99.90;;;;;;5126474;28;20158;-67
2021/03/14 01:25:34;;;;;;;11.53;3.90;;;5.70;99.90;;;;;;5124451;28;20170;-66
2021/03/14 01:27:59;;;;;;;9.57;3.90;;;5.70;99.90;;;;;;5126053;28;20229;-66
2021/03/14 01:30:25;;;;;;;7.33;3.70;;;5.60;99.90;;;;;;5123733;28;20174;-66
2021/03/14 01:32:51;;;;;;;12.43;2.97;;;5.50;99.90;;;;;;5126156;28;20192;-67
2021/03/14 01:35:18;;;;;;;6.40;3.70;;;5.50;99.90;;;;;;5126162;28;20170;-66
2021/03/14 01:37:44;;;;;;;12.87;3.07;;;5.40;99.90;;;;;;5125936;28;20173;-66
2021/03/14 01:40:12;;;;;;;10.33;3.27;;;5.40;99.90;;;;;;5123134;28;20324;-66
2021/03/14 01:42:38;;;;;;;12.60;3.00;;;5.50;99.90;;;;;;5125794;28;20163;-66
2021/03/14 01:45:05;;;;;;;7.30;2.10;;;5.40;99.90;;;;;;5125902;28;20166;-66
2021/03/14 01:47:35;;;;;;;12.23;3.40;;;5.50;99.90;;;;;;5124607;28;20677;-66
2021/03/14 01:50:04;;;;;;;10.40;2.53;;;5.40;99.90;;;;;;5122259;28;20159;-66
2021/03/14 01:52:31;;;;;;;11.73;2.40;;;5.30;99.90;;;;;;5125806;28;20162;-66
2021/03/14 01:54:57;;;;;;;9.53;2.60;;;5.30;99.90;;;;;;5127541;28;20183;-66
2021/03/14 01:57:22;;;;;;;10.37;3.03;;;5.40;99.90;;;;;;5129891;28;20177;-66
2021/03/14 01:59:48;;;;;;;13.50;3.00;;;5.30;99.90;;;;;;5127495;28;20247;-66
2021/03/14 02:02:14;;;;;;;7.20;2.47;;;5.30;99.90;;;;;;5128278;28;20237;-66
2021/03/14 02:04:39;;;;;;;8.80;2.77;;;5.30;99.90;;;;;;5129681;28;20262;-66
2021/03/14 02:07:05;;;;;;;10.90;2.90;;;5.30;99.90;;;;;;5128460;28;20246;-66
2021/03/14 02:09:31;;;;;;;12.30;2.60;;;5.30;99.90;;;;;;5129093;28;20233;-66
2021/03/14 02:12:01;;;;;;;10.43;2.50;;;5.20;99.90;;;;;;5127803;28;20456;-66
2021/03/14 02:14:28;;;;;;;8.10;2.80;;;5.20;99.90;;;;;;5129575;28;20166;-67
2021/03/14 02:16:57;;;;;;;13.97;2.50;;;5.30;99.90;;;;;;5128507;28;20173;-66
2021/03/14 02:19:30;;;;;;;13.67;3.07;;;5.20;99.90;;;;;;5129478;27;20200;-65
2021/03/14 02:22:01;;;;;;;9.40;2.50;;;5.20;99.90;;;;;;5127229;28;20231;-66
2021/03/14 02:24:33;;;;;;;7.70;2.57;;;5.30;99.90;;;;;;5127924;28;20261;-66
2021/03/14 02:27:04;;;;;;;9.30;2.93;;;5.20;99.90;;;;;;5129314;27;20162;-66
2021/03/14 02:29:32;;;;;;;11.13;2.57;;;5.20;99.90;;;;;;5127516;28;20230;-66
2021/03/14 02:31:59;;;;;;;5.87;2.77;;;5.20;99.90;;;;;;5127641;28;20163;-66
2021/03/14 02:34:30;;;;;;;7.93;3.57;;;5.30;99.90;;;;;;5129195;28;20170;-66
2021/03/14 02:36:57;;;;;;;13.37;2.80;;;5.40;99.90;;;;;;5129125;28;20253;-66
2021/03/14 02:39:25;;;;;;;9.37;2.60;;;5.30;99.90;;;;;;5128834;28;20191;-66
2021/03/14 02:41:53;;;;;;;6.67;2.63;;;5.20;99.90;;;;;;5126463;28;20182;-66
2021/03/14 02:44:23;;;;;;;10.50;2.53;;;5.20;99.90;;;;;;5128892;28;20154;-66
2021/03/14 02:46:51;;;;;;;10.83;2.67;;;5.10;99.90;;;;;;5128817;28;20155;-66
2021/03/14 02:49:19;;;;;;;8.20;2.40;;;5.20;99.90;;;;;;5129004;28;20163;-66
2021/03/14 02:51:46;;;;;;;7.77;2.67;;;5.20;99.90;;;;;;5126240;28;20637;-66
2021/03/14 02:54:13;;;;;;;8.07;2.73;;;5.20;99.90;;;;;;5128575;28;20182;-66
2021/03/14 02:56:38;;;;;;;11.73;2.50;;;5.20;99.90;;;;;;5127559;28;20173;-66
2021/03/14 02:59:05;;;;;;;15.83;2.70;;;5.30;99.90;;;;;;5128731;27;20210;-66
2021/03/14 03:01:32;;;;;;;5.17;2.07;;;5.30;99.90;;;;;;5126037;28;20158;-66
2021/03/14 03:04:00;;;;;;;7.27;2.40;;;5.20;99.90;;;;;;5128521;28;20155;-66
2021/03/14 03:06:27;;;;;;;8.43;2.23;;;5.10;99.90;;;;;;5127215;28;20159;-66
2021/03/14 03:08:53;;;;;;;8.17;2.97;;;5.20;99.90;;;;;;5128567;28;20652;-66
2021/03/14 03:11:20;;;;;;;8.77;2.83;;;5.20;99.90;;;;;;5125544;28;20170;-66
2021/03/14 03:13:46;;;;;;;6.57;2.30;;;5.20;99.90;;;;;;5128230;28;20515;-66
2021/03/14 03:16:15;;;;;;;6.13;2.03;;;5.10;99.90;;;;;;5128539;28;20162;-66
2021/03/14 03:18:42;;;;;;;8.03;2.63;;;5.20;99.90;;;;;;5128273;28;20199;-66
2021/03/14 03:21:10;;;;;;;6.77;2.40;;;5.20;99.90;;;;;;5125736;28;20163;-66
2021/03/14 03:23:37;;;;;;;8.63;2.20;;;5.30;99.90;;;;;;5128240;27;20162;-66
2021/03/14 03:26:04;;;;;;;7.80;2.70;;;5.30;99.90;;;;;;5128015;28;20711;-66
2021/03/14 03:28:30;;;;;;;9.87;2.73;;;5.10;99.90;;;;;;5127709;28;20214;-66
2021/03/14 03:30:55;;;;;;;10.83;2.87;;;5.10;99.90;;;;;;5125490;28;20174;-66
2021/03/14 03:33:21;;;;;;;9.43;2.30;;;5.10;99.90;;;;;;5127963;28;20233;-66
2021/03/14 03:35:47;;;;;;;30.27;4.33;;;5.00;99.90;;;;;;5127689;28;20226;-66
2021/03/14 03:38:13;;;;;;;8.73;2.10;;;5.00;99.90;;;;;;5127821;28;20195;-66
2021/03/14 03:40:39;;;;;;;13.63;2.40;;;5.00;99.90;;;;;;5125053;28;20182;-66
2021/03/14 03:43:27;;;;;;;11.20;3.20;;;5.00;99.90;;;;;;5128214;28;20169;-65
2021/03/14 03:45:56;;;;;;;10.13;1.97;;;5.10;99.90;;;;;;5127765;28;20246;-66
2021/03/14 03:48:44;;;;;;;8.90;2.53;;;5.10;99.90;;;;;;5127633;28;20245;-66
2021/03/14 03:51:10;;;;;;;9.37;3.10;;;5.10;99.90;;;;;;5124943;28;20159;-66
2021/03/14 03:53:38;;;;;;;13.13;2.63;;;5.20;99.90;;;;;;5127772;28;20159;-66
2021/03/14 03:56:05;;;;;;;8.80;3.20;;;5.20;99.90;;;;;;5127338;28;20505;-66
2021/03/14 03:58:31;;;;;;;12.63;2.80;;;5.30;99.90;;;;;;5127289;28;20163;-66
2021/03/14 04:00:59;;;;;;;10.53;2.83;;;5.20;99.90;;;;;;5124850;28;20697;-66
2021/03/14 04:03:24;;;;;;;10.93;2.73;;;5.30;99.90;;;;;;5127557;28;20241;-66
2021/03/14 04:05:57;;;;;;;15.77;3.83;;;5.30;99.90;;;;;;5127078;28;20166;-66
2021/03/14 04:08:24;;;;;;;14.40;3.00;;;5.40;99.90;;;;;;5127215;28;20166;-67
2021/03/14 04:10:51;;;;;;;8.63;3.00;;;5.20;99.90;;;;;;5124245;28;20166;-66
2021/03/14 04:13:17;;;;;;;13.33;2.60;;;5.20;99.90;;;;;;5125878;28;20173;-66
2021/03/14 04:15:43;;;;;;;20.47;4.27;;;5.30;99.90;;;;;;5126922;28;20216;-67
2021/03/14 04:18:11;;;;;;;16.77;2.90;;;5.30;99.90;;;;;;5126774;28;20167;-66
2021/03/14 04:20:39;;;;;;;14.40;2.63;;;5.40;99.90;;;;;;5124483;28;20273;-67
2021/03/14 04:23:09;;;;;;;10.63;2.57;;;5.50;99.90;;;;;;5127193;28;20163;-66
2021/03/14 04:25:35;;;;;;;9.37;2.47;;;5.60;99.90;;;;;;5126563;28;20516;-66
2021/03/14 04:28:02;;;;;;;9.87;2.87;;;5.50;99.90;;;;;;5126889;28;20710;-66
2021/03/14 04:30:31;;;;;;;9.07;2.37;;;5.50;99.90;;;;;;5122987;28;20177;-67
2021/03/14 04:32:57;;;;;;;6.63;2.33;;;5.50;99.90;;;;;;5127026;28;20187;-66
2021/03/14 04:35:24;;;;;;;8.27;2.90;;;5.40;99.90;;;;;;5126756;28;20177;-66
2021/03/14 04:37:51;;;;;;;9.67;2.60;;;5.50;99.90;;;;;;5126809;28;20163;-66
2021/03/14 04:40:17;;;;;;;7.93;2.90;;;5.50;99.90;;;;;;5123926;28;20190;-67
2021/03/14 04:42:47;;;;;;;10.90;4.50;;;5.60;99.90;;;;;;5126745;28;20166;-66
2021/03/14 04:45:13;;;;;;;14.20;2.80;;;5.60;99.90;;;;;;5126743;28;20257;-66
2021/03/14 04:47:43;;;;;;;19.23;2.77;;;5.70;99.90;;;;;;5125256;28;20654;-67
2021/03/14 04:50:11;;;;;;;9.20;2.73;;;5.60;99.90;;;;;;5124083;28;20169;-67
2021/03/14 04:52:38;;;;;;;7.90;2.67;;;5.50;99.90;;;;;;5125293;28;20178;-67
2021/03/14 04:55:08;;;;;;;11.17;2.80;;;5.40;99.90;;;;;;5126244;28;20190;-67
2021/03/14 04:57:37;;;;;;;10.90;3.00;;;5.30;99.90;;;;;;5125186;28;20166;-67
2021/03/14 05:00:07;;;;;;;15.77;3.00;;;5.30;99.90;;;;;;5123905;28;20183;-68
2021/03/14 05:02:34;;;;;;;10.83;2.83;;;5.30;99.90;;;;;;5125045;28;20159;-67
2021/03/14 05:05:02;;;;;;;8.10;2.60;;;5.00;99.90;;;;;;5126577;28;20163;-67
2021/03/14 05:07:29;;;;;;;21.17;2.67;;;4.90;99.90;;;;;;5126304;28;20154;-67
2021/03/14 05:09:56;;;;;;;13.17;2.47;;;4.80;99.90;;;;;;5123652;28;20163;-68
2021/03/14 05:12:22;;;;;;;8.77;2.50;;;4.60;99.90;;;;;;5126538;28;20170;-67
2021/03/14 05:14:49;;;;;;;9.80;2.43;;;4.40;99.90;;;;;;5126140;28;20188;-67
2021/03/14 05:17:16;;;;;;;10.53;2.60;;;4.20;99.90;;;;;;5126254;28;20165;-68
2021/03/14 05:19:41;;;;;;;9.27;2.60;;;4.20;99.90;;;;;;5124621;28;20197;-68
2021/03/14 05:22:07;;;;;;;5.43;2.57;;;4.30;99.90;;;;;;5123995;28;20241;-67
2021/03/14 05:24:34;;;;;;;2.37;1.80;;;4.40;99.90;;;;;;5125990;28;20163;-67
2021/03/14 05:27:02;;;;;;;9.80;2.27;;;4.30;99.90;;;;;;5126338;28;20212;-68
2021/03/14 05:29:28;;;;;;;5.30;1.83;;;4.20;99.90;;;;;;5126791;28;20214;-67
2021/03/14 05:31:56;;;;;;;2.10;1.80;;;4.20;99.90;;;;;;5127925;27;20155;-67
2021/03/14 05:34:22;;;;;;;4.20;2.20;;;4.40;99.90;;;;;;5130338;28;20174;-68
2021/03/14 05:36:48;;;;;;;7.63;2.33;;;4.50;99.90;;;;;;5130303;27;20170;-67
2021/03/14 05:39:15;;;;;;;2.67;2.20;;;4.50;99.90;;;;;;5130116;28;20531;-68
2021/03/14 05:41:42;;;;;;;3.70;3.23;;;4.60;99.90;;;;;;5127064;28;20420;-67
2021/03/14 05:44:08;;;;;;;5.70;3.40;;;4.60;99.90;;;;;;5130084;28;20647;-67
2021/03/14 05:46:35;;;;;;;3.50;3.10;;;4.60;99.90;;;;;;5129968;28;20176;-68
2021/03/14 05:49:04;;;;;;;3.63;2.83;;;4.70;99.90;;;;;;5128970;28;20240;-68
2021/03/14 05:51:34;;;;;;;7.73;3.80;;;4.60;99.90;;;;;;5125896;28;20162;-68
2021/03/14 05:54:00;;;;;;;10.07;5.30;;;4.50;99.90;;;;;;5128964;27;20490;-68
2021/03/14 05:56:28;;;;;;;8.17;5.10;;;4.70;99.90;;;;;;5129804;28;20175;-68
2021/03/14 05:58:55;;;;;;;6.70;4.37;;;4.60;99.90;;;;;;5129826;28;20549;-68
2021/03/14 06:01:25;;;;;;;11.50;6.40;;;4.60;99.90;;;;;;5126559;27;20399;-68
2021/03/14 06:03:52;;;;;;;8.03;5.40;;;4.90;99.90;;;;;;5128519;28;20917;-68
2021/03/14 06:06:17;;;;;;;12.57;5.07;;;4.80;99.90;;;;;;5129756;27;20159;-67
2021/03/14 06:08:43;;;;;;;7.20;5.47;;;4.90;99.90;;;;;;5129614;28;20162;-68
2021/03/14 06:11:13;;;;;;;9.87;4.87;;;4.90;99.90;;;;;;5126867;28;20170;-68
2021/03/14 06:13:39;;;;;;;7.13;4.13;;;4.90;99.90;;;;;;5129477;28;20162;-68
2021/03/14 06:16:06;;;;;;;8.63;5.17;;;4.80;99.90;;;;;;5129555;28;20284;-68
2021/03/14 06:18:32;;;;;;;12.43;7.05;;;4.70;99.90;;;;;;5128306;28;20407;-69
2021/03/14 06:20:58;;;;;;;13.77;6.67;;;4.60;99.90;;;;;;5126926;28;20503;-69
2021/03/14 06:23:24;;;;;;;7.70;5.50;;;4.60;99.90;;;;;;5129349;28;20180;-68
2021/03/14 06:25:53;;;;;;;6.73;4.83;;;4.70;99.90;;;;;;5128832;28;20163;-68
2021/03/14 06:28:34;;;;;;;9.43;4.47;;;4.70;99.90;;;;;;5129234;28;20211;-68
2021/03/14 06:31:20;;;;;;;16.07;5.00;;;4.80;99.90;;;;;;5126732;28;20155;-68
2021/03/14 06:33:46;;;;;;;7.73;4.27;;;4.80;99.90;;;;;;5127892;28;20162;-68
2021/03/14 06:36:17;;;;;;;15.53;4.77;;;4.90;99.90;;;;;;5129170;28;20230;-69
2021/03/14 06:38:43;;;;;;;13.30;5.23;;;5.00;99.90;;;;;;5128989;28;20186;-68
2021/03/14 06:41:09;;;;;;;8.87;4.27;;;5.10;99.90;;;;;;5126151;28;20181;-68
2021/03/14 06:43:44;;;;;;;10.43;5.43;;;5.20;99.90;;;;;;5128999;28;20626;-69
2021/03/14 06:46:24;;;;;;;11.17;5.37;;;5.00;99.90;;;;;;5128935;28;20173;-69
2021/03/14 06:49:09;;;;;;;13.07;5.87;;;4.90;99.90;;;;;;5128811;28;20312;-69
2021/03/14 06:51:36;;;;;;;7.50;5.13;;;5.00;99.90;;;;;;5126373;28;20170;-68
2021/03/14 06:54:23;;;;;;;8.03;5.13;;;5.00;99.90;;;;;;5128875;28;20166;-68
2021/03/14 06:57:08;;;;;;;13.23;6.23;;;5.10;99.90;;;;;;5128553;28;20240;-69
2021/03/14 06:59:42;;;;;;;15.27;5.17;;;5.30;99.90;;;;;;5127681;27;20194;-68
2021/03/14 07:02:15;;;;;;;9.70;5.53;;;5.50;99.90;;;;;;5127554;28;20173;-68
2021/03/14 07:04:46;;;;;;;8.33;5.33;;;5.50;99.90;;;;;;5128210;28;20167;-69
2021/03/14 07:07:14;;;;;;;11.07;5.60;;;5.50;99.90;;;;;;5128320;28;20159;-69
2021/03/14 07:09:40;;;;;;;12.97;6.20;;;5.60;99.90;;;;;;5126556;28;20181;-68
2021/03/14 07:12:16;;;;;;;9.87;6.37;;;5.50;99.90;;;;;;5127568;28;20159;-68
2021/03/14 07:14:42;;;;;;;9.43;5.17;;;5.50;99.90;;;;;;5128143;28;20239;-68
2021/03/14 07:17:08;;;;;;;15.10;5.30;;;5.50;99.90;;;;;;5128272;28;20492;-68
2021/03/14 07:19:33;;;;;;;9.97;4.97;;;5.60;99.90;;;;;;5127311;28;20194;-68
2021/03/14 07:22:09;;;;;;;10.17;4.23;;;5.60;99.90;;;;;;5126441;28;20155;-68
2021/03/14 07:24:40;;;;;;;9.37;4.20;;;5.60;99.90;;;;;;5127690;27;20185;-68
2021/03/14 07:27:08;;;;;;;8.30;4.10;;;5.60;99.90;;;;;;5126735;28;20604;-68
2021/03/14 07:29:34;;;;;;;5.77;4.07;;;5.50;99.90;;;;;;5127122;28;20248;-68
2021/03/14 07:32:02;;;;;;;7.82;5.00;;;5.70;99.90;;;;;;5125937;28;20426;-68
2021/03/14 07:34:27;;;;;;;7.87;5.30;;;5.80;99.90;;;;;;5127614;28;20182;-68
2021/03/14 07:36:54;;;;;;;7.53;4.13;;;5.80;99.90;;;;;;5127771;28;20163;-68
2021/03/14 07:39:20;;;;;;;10.80;5.03;;;5.80;99.90;;;;;;5127406;28;20194;-68
2021/03/14 07:41:47;;;;;;;11.43;4.93;;;5.80;99.90;;;;;;5124321;28;20757;-68
2021/03/14 07:44:16;;;;;;;10.93;4.77;;;5.90;99.90;;;;;;5127591;28;20216;-69
2021/03/14 07:46:43;;;;;;;7.97;4.37;;;5.90;99.90;;;;;;5127721;28;20186;-68
2021/03/14 07:49:13;;;;;;;10.53;4.00;;;5.90;99.90;;;;;;5127712;28;20189;-68
2021/03/14 07:51:41;;;;;;;4.80;3.60;;;6.00;99.90;;;;;;5124600;28;20158;-68
2021/03/14 07:54:10;;;;;;;6.70;3.80;;;6.00;99.90;;;;;;5127479;28;20163;-68
2021/03/14 07:56:38;;;;;;;5.43;3.50;;;6.00;99.90;;;;;;5127301;27;20194;-68
2021/03/14 07:59:05;;;;;;;9.57;4.13;;;6.10;99.90;;;;;;5127460;28;20186;-69
2021/03/14 08:01:34;;;;;;;6.83;3.77;;;6.10;99.90;;;;;;5123364;28;20189;-68
2021/03/14 08:04:00;;;;;;;10.53;3.87;;;6.10;99.90;;;;;;5127426;28;20162;-68
2021/03/14 08:06:46;;;;;;;5.23;3.57;;;6.10;99.90;;;;;;5126906;28;20163;-68
2021/03/14 08:09:13;;;;;;;7.67;3.33;;;6.10;99.90;;;;;;5115732;28;20185;-68
2021/03/14 08:11:38;;;;;;;8.80;3.90;;;6.10;99.90;;;;;;5124322;28;20166;-68
2021/03/14 08:14:04;;;;;;;12.33;3.83;;;6.20;99.90;;;;;;5126620;28;20166;-68
2021/03/14 08:16:30;;;;;;;5.47;2.80;;;6.30;99.90;;;;;;5126830;28;20248;-68
2021/03/14 08:18:57;;;;;;;6.73;3.00;;;6.30;99.90;;;;;;5127029;28;20194;-68
2021/03/14 08:21:29;;;;;;;12.60;4.13;;;6.40;99.90;;;;;;5124336;28;20620;-68
2021/03/14 08:23:56;;;;;;;12.63;3.40;;;6.50;99.90;;;;;;5126897;28;20159;-68
2021/03/14 08:26:32;;;;;;;8.83;3.10;;;6.50;99.90;;;;;;5126333;28;20170;-68
2021/03/14 08:29:02;;;;;;;7.47;3.40;;;6.60;99.90;;;;;;5125378;28;20683;-68
2021/03/14 08:31:44;;;;;;;7.23;3.70;;;6.70;99.90;;;;;;5123937;28;20167;-68
2021/03/14 08:34:20;;;;;;;10.07;3.37;;;6.80;99.90;;;;;;5126827;28;20162;-68
2021/03/14 08:36:47;;;;;;;9.80;3.13;;;6.80;99.90;;;;;;5126646;27;20171;-68
2021/03/14 08:39:31;;;;;;;9.90;3.43;;;6.80;99.90;;;;;;5126554;28;20198;-68
2021/03/14 08:41:59;;;;;;;8.33;3.07;;;6.90;99.90;;;;;;5124947;28;20151;-68
2021/03/14 08:44:39;;;;;;;7.43;3.00;;;6.80;99.90;;;;;;5126677;28;20155;-68
2021/03/14 08:47:15;;;;;;;8.83;3.10;;;6.90;99.90;;;;;;5126601;28;20161;-68
2021/03/14 08:49:52;;;;;;;9.23;3.30;;;6.90;99.90;;;;;;5124981;28;20166;-68
2021/03/14 08:52:19;;;;;;;5.20;2.37;;;6.90;99.90;;;;;;5126381;28;20163;-68
2021/03/14 08:54:49;;;;;;;7.37;3.07;;;6.90;99.90;;;;;;5124572;28;20166;-68
2021/03/14 08:57:16;;;;;;;9.20;2.27;;;6.90;99.90;;;;;;5125246;28;20647;-68
2021/03/14 08:59:45;;;;;;;10.93;3.13;;;7.00;99.90;;;;;;5124471;28;20229;-68
2021/03/14 09:02:18;;;;;;;9.20;2.43;;;7.10;99.90;;;;;;5125564;28;20187;-68
2021/03/14 09:04:44;;;;;;;12.43;3.47;;;7.20;99.90;;;;;;5125860;28;20174;-68
2021/03/14 09:07:11;;;;;;;10.50;2.47;;;7.30;99.90;;;;;;5158922;27;20158;-68
2021/03/14 09:09:39;;;;;;;8.40;3.10;;;7.40;99.90;;;;;;5157271;27;20166;-68
2021/03/14 09:12:07;;;;;;;9.83;3.20;;;7.40;99.90;;;;;;5125052;28;20234;-68
2021/03/14 09:14:35;;;;;;;6.80;2.70;;;7.50;99.90;;;;;;5125609;28;20163;-68
2021/03/14 09:17:13;;;;;;;14.27;2.50;;;7.70;99.90;;;;;;5126091;28;20158;-68
2021/03/14 09:19:39;;;;;;;8.30;2.43;;;7.70;99.90;;;;;;5124336;28;20063;-68
2021/03/14 09:22:09;;;;;;;6.90;2.53;;;7.70;99.90;;;;;;5123662;28;20165;-68
2021/03/14 09:24:36;;;;;;;8.43;2.90;;;7.80;99.90;;;;;;5124164;28;20253;-68
2021/03/14 09:27:05;;;;;;;4.03;2.00;;;7.80;99.90;;;;;;5126010;28;20219;-68
2021/03/14 09:29:35;;;;;;;6.27;3.07;;;7.70;99.90;;;;;;5123815;28;20305;-68
2021/03/14 09:32:02;;;;;;;7.95;2.80;;;7.60;99.90;;;;;;5122440;28;20407;-68
2021/03/14 09:34:30;;;;;;;7.83;2.70;;;7.60;99.90;;;;;;5124393;28;20169;-68
2021/03/14 09:36:57;;;;;;;5.93;2.63;;;7.60;99.90;;;;;;5126031;28;20158;-68
2021/03/14 09:39:24;;;;;;;7.47;2.13;;;7.50;99.90;;;;;;5125448;28;20647;-68
2021/03/14 09:41:50;;;;;;;13.13;3.10;;;7.50;99.90;;;;;;5123194;28;20166;-68
2021/03/14 09:44:17;;;;;;;3.93;2.30;;;7.60;99.90;;;;;;5125792;28;20173;-68
2021/03/14 09:46:53;;;;;;;8.23;2.70;;;7.60;99.90;;;;;;5125659;28;20187;-68
2021/03/14 09:49:19;;;;;;;6.90;2.80;;;7.60;99.90;;;;;;5125850;28;20167;-67
2021/03/14 09:51:55;;;;;;;13.33;2.50;;;7.70;99.90;;;;;;5123153;28;20230;-67
2021/03/14 09:54:22;;;;;;;14.60;2.77;;;7.70;99.90;;;;;;5124205;28;20248;-68
2021/03/14 09:56:55;;;;;;;9.77;2.70;;;7.80;99.90;;;;;;5125833;28;20228;-67
2021/03/14 09:59:28;;;;;;;14.07;2.73;;;7.90;99.90;;;;;;5125714;28;20193;-67
2021/03/14 10:01:57;;;;;;;5.10;2.17;;;8.00;99.90;;;;;;5123554;28;20244;-67
2021/03/14 10:04:22;;;;;;;9.83;2.87;;;8.10;99.90;;;;;;5125930;28;20458;-68
2021/03/14 10:06:48;;;;;;;5.90;2.60;;;8.20;99.90;;;;;;5125608;28;20631;-68
2021/03/14 10:09:25;;;;;;;11.10;2.43;;;8.30;99.90;;;;;;5125822;28;20171;-69
2021/03/14 10:11:53;;;;;;;9.40;2.33;;;8.30;99.90;;;;;;5123072;28;20194;-67
2021/03/14 10:14:20;;;;;;;7.27;2.33;;;8.30;99.90;;;;;;5125828;28;20170;-68
2021/03/14 10:16:49;;;;;;;8.90;2.10;;;8.50;99.90;;;;;;5127043;28;20181;-67
2021/03/14 10:19:16;;;;;;;5.17;2.00;;;8.60;99.90;;;;;;5129344;28;20726;-67
2021/03/14 10:21:44;;;;;;;5.33;1.70;;;8.70;99.90;;;;;;5126668;28;20245;-68
2021/03/14 10:24:20;;;;;;;6.90;2.13;;;8.60;99.90;;;;;;5129438;28;20159;-67
2021/03/14 10:26:57;;;;;;;8.03;2.30;;;8.60;99.90;;;;;;5128478;28;20167;-67
2021/03/14 10:29:34;;;;;;;11.47;2.60;;;8.50;99.90;;;;;;5128922;28;20210;-69
2021/03/14 10:32:01;;;;;;;9.90;2.60;;;8.40;99.90;;;;;;5127554;28;20162;-68
2021/03/14 10:34:26;;;;;;;5.53;2.13;;;8.20;99.90;;;;;;5128059;28;20701;-68
2021/03/14 10:36:54;;;;;;;16.57;2.70;;;8.00;99.90;;;;;;5162319;27;20198;-68
2021/03/14 10:39:27;;;;;;;9.93;2.97;;;7.90;99.90;;;;;;5128678;28;20194;-68
2021/03/14 10:41:53;;;;;;;10.03;2.53;;;8.10;99.90;;;;;;5126349;27;20167;-68
2021/03/14 10:44:21;;;;;;;6.37;2.60;;;8.20;99.90;;;;;;5129130;28;20169;-68
2021/03/14 10:46:50;;;;;;;7.00;2.87;;;8.10;99.90;;;;;;5128785;28;20163;-68
2021/03/14 10:49:33;;;;;;;8.20;3.37;;;8.20;99.90;;;;;;5128788;28;20169;-68
2021/03/14 10:52:00;;;;;;;9.20;2.47;;;8.40;99.90;;;;;;5126774;28;20166;-68
2021/03/14 10:54:34;;;;;;;6.90;2.50;;;8.50;99.90;;;;;;5128509;28;20195;-68
2021/03/14 10:56:59;;;;;;;8.77;2.73;;;8.60;99.90;;;;;;5128479;28;20257;-68
2021/03/14 10:59:26;;;;;;;10.07;2.83;;;8.60;99.90;;;;;;5128382;28;20218;-68
2021/03/14 11:01:56;;;;;;;12.57;3.20;;;8.70;99.90;;;;;;5124279;28;20599;-68
2021/03/14 11:04:29;;;;;;;9.90;2.53;;;8.70;99.90;;;;;;5128636;28;20174;-68
2021/03/14 11:06:56;;;;;;;8.23;1.67;;;8.70;99.90;;;;;;5128322;28;20163;-68
2021/03/14 11:09:23;;;;;;;5.37;2.50;;;8.60;99.90;;;;;;5127894;28;20192;-68
2021/03/14 11:11:50;;;;;;;14.93;3.00;;;8.50;99.90;;;;;;5125197;28;20187;-69
2021/03/14 11:14:26;;;;;;;9.73;2.53;;;8.60;99.90;;;;;;5128210;28;20643;-67
2021/03/14 11:17:09;;;;;;;8.57;2.93;;;8.60;99.90;;;;;;5126723;28;20223;-68
2021/03/14 11:19:35;;;;;;;8.03;3.00;;;8.60;99.90;;;;;;5127134;28;20182;-67
2021/03/14 11:22:01;;;;;;;12.00;2.60;;;8.60;99.90;;;;;;5126754;28;20222;-68
2021/03/14 11:24:27;;;;;;;11.47;2.50;;;8.70;99.90;;;;;;5126446;28;20185;-67
2021/03/14 11:26:52;;;;;;;11.53;2.30;;;8.70;99.90;;;;;;5126885;28;20194;-68
2021/03/14 11:29:19;;;;;;;13.30;2.60;;;8.70;99.90;;;;;;5127387;28;20488;-68
2021/03/14 11:31:44;;;;;;;11.07;3.43;;;8.60;99.90;;;;;;5124810;27;20171;-68
2021/03/14 11:34:10;;;;;;;14.20;2.67;;;8.70;99.90;;;;;;5127882;28;20289;-67
2021/03/14 11:36:36;;;;;;;10.20;2.57;;;8.80;99.90;;;;;;5126714;28;20166;-67
2021/03/14 11:39:02;;;;;;;6.23;2.40;;;9.00;99.90;;;;;;5127312;28;20236;-67
2021/03/14 11:41:30;;;;;;;10.57;2.83;;;9.30;99.90;;;;;;5124262;28;20199;-67
2021/03/14 11:43:56;;;;;;;8.80;2.40;;;9.30;99.90;;;;;;5126269;28;20183;-67
2021/03/14 11:46:21;;;;;;;15.87;2.97;;;9.40;99.90;;;;;;5127305;28;20198;-67
2021/03/14 11:48:47;;;;;;;14.23;2.87;;;9.40;99.90;;;;;;5126956;28;20209;-67
2021/03/14 11:51:12;;;;;;;10.77;2.07;;;9.50;99.90;;;;;;5124649;28;20177;-67
2021/03/14 11:53:38;;;;;;;11.27;2.47;;;9.40;99.90;;;;;;5126933;28;20246;-67
2021/03/14 11:56:04;;;;;;;5.17;2.20;;;9.30;99.90;;;;;;5127066;28;20216;-68
2021/03/14 11:58:29;;;;;;;6.90;1.73;;;9.20;99.90;;;;;;5127071;28;20291;-68
2021/03/14 12:00:55;;;;;;;8.57;2.20;;;9.10;99.90;;;;;;5124780;28;20234;-68
2021/03/14 12:03:21;;;;;;;12.97;2.70;;;9.10;99.90;;;;;;5127247;28;20642;-68
2021/03/14 12:05:46;;;;;;;8.07;1.93;;;9.40;99.90;;;;;;5126919;28;20170;-68
2021/03/14 12:08:12;;;;;;;9.00;1.90;;;9.70;99.90;;;;;;5127131;28;20167;-68
2021/03/14 12:10:37;;;;;;;8.33;1.90;;;10.00;99.90;;;;;;5123757;28;20167;-68
2021/03/14 12:13:03;;;;;;;5.03;1.37;;;10.10;99.90;;;;;;5127057;28;20303;-68
2021/03/14 12:15:29;;;;;;;13.63;2.47;;;10.00;99.90;;;;;;5126055;28;20174;-68
2021/03/14 12:17:54;;;;;;;12.83;2.00;;;9.70;99.90;;;;;;5126930;28;20188;-68
2021/03/14 12:20:20;;;;;;;8.87;1.87;;;9.80;99.90;;;;;;5124317;28;20276;-68
2021/03/14 12:22:46;;;;;;;12.10;1.80;;;9.70;99.90;;;;;;5126390;28;20167;-68
2021/03/14 12:25:11;;;;;;;7.70;2.23;;;9.60;99.90;;;;;;5126485;28;20166;-68
2021/03/14 12:27:37;;;;;;;8.70;2.57;;;9.50;99.90;;;;;;5126241;28;20154;-68
2021/03/14 12:30:04;;;;;;;9.07;2.30;;;9.40;99.90;;;;;;5123992;28;20165;-68
2021/03/14 12:32:29;;;;;;;10.50;1.93;;;9.40;99.90;;;;;;5126538;28;20155;-68
2021/03/14 12:34:55;;;;;;;10.47;2.70;;;9.40;99.90;;;;;;5126698;28;20165;-68
2021/03/14 12:37:21;;;;;;;9.47;2.03;;;9.50;99.90;;;;;;5125252;28;20608;-68
2021/03/14 12:39:47;;;;;;;9.93;2.07;;;9.60;99.90;;;;;;5123658;28;20281;-68
2021/03/14 12:42:12;;;;;;;9.90;1.90;;;9.80;99.90;;;;;;5126306;28;20150;-68
2021/03/14 12:44:38;;;;;;;10.40;1.90;;;9.90;99.90;;;;;;5126568;28;20200;-69
2021/03/14 12:47:04;;;;;;;9.63;1.80;;;10.10;99.90;;;;;;5126600;28;20509;-69
2021/03/14 12:49:29;;;;;;;13.70;2.07;;;10.20;99.90;;;;;;5126360;28;20163;-69
2021/03/14 12:51:55;;;;;;;10.43;1.93;;;10.30;99.90;;;;;;5124220;28;20162;-69
2021/03/14 12:54:21;;;;;;;10.23;2.60;;;10.20;99.90;;;;;;5125927;28;20190;-69
2021/03/14 12:56:46;;;;;;;17.87;3.60;;;10.10;99.90;;;;;;5125025;28;20163;-68